Time;durP1;ratioP1;P1;durP2;ratioP2;P2;SDS_P1;SDS_P2;PMS_P1;PMS_P2;Temp;Humidity;BMP_temperature;BMP_pressure;BME280_temperature;BME280_humidity;BME280_pressure;Samples;Min_cycle;Max_cycle;Signal;HPM_P1;HPM_P2
2023/08/14 00:00:27;;;;;;;2.13;1.88;;;24.00;70.20;;;;;;4993162;28;20121;-51
2023/08/14 00:02:53;;;;;;;2.97;2.20;;;24.00;70.00;;;;;;4993032;28;20032;-51
2023/08/14 00:05:18;;;;;;;3.17;2.45;;;24.00;70.00;;;;;;4989465;28;20039;-51
2023/08/14 00:07:44;;;;;;;1.90;1.80;;;24.00;70.10;;;;;;4996195;28;20096;-53
2023/08/14 00:10:09;;;;;;;2.67;2.00;;;24.00;70.10;;;;;;5000858;28;20119;-51
2023/08/14 00:12:35;;;;;;;3.50;2.17;;;24.00;70.00;;;;;;4997024;28;20035;-52
2023/08/14 00:15:00;;;;;;;3.15;2.55;;;24.00;70.00;;;;;;4999574;28;20037;-49
2023/08/14 00:17:26;;;;;;;2.50;2.20;;;24.00;70.10;;;;;;4995367;28;20049;-51
2023/08/14 00:19:51;;;;;;;3.00;2.03;;;24.00;70.00;;;;;;5001593;28;20041;-48
2023/08/14 00:22:17;;;;;;;2.47;2.10;;;24.00;70.00;;;;;;4996460;28;20064;-50
2023/08/14 00:24:42;;;;;;;4.32;1.92;;;24.00;70.00;;;;;;4994488;28;20058;-47
2023/08/14 00:27:08;;;;;;;2.90;2.03;;;24.00;69.90;;;;;;4995501;28;20108;-52
2023/08/14 00:29:34;;;;;;;3.20;2.35;;;24.00;70.00;;;;;;4993987;28;20046;-49
2023/08/14 00:31:59;;;;;;;2.20;1.90;;;24.00;69.90;;;;;;4992965;28;20376;-50
2023/08/14 00:34:25;;;;;;;2.53;2.33;;;24.00;69.80;;;;;;4991246;28;20040;-50
2023/08/14 00:36:51;;;;;;;2.40;2.20;;;24.00;70.00;;;;;;4994304;28;20025;-49
2023/08/14 00:39:16;;;;;;;3.38;2.15;;;24.00;69.90;;;;;;4998352;28;20129;-49
2023/08/14 00:41:42;;;;;;;2.22;2.10;;;24.00;69.90;;;;;;4999817;28;20590;-51
2023/08/14 00:44:08;;;;;;;3.97;1.90;;;24.00;70.00;;;;;;4998711;28;20038;-52
2023/08/14 00:46:33;;;;;;;2.42;1.80;;;24.00;69.90;;;;;;4997056;28;20065;-51
2023/08/14 00:48:59;;;;;;;2.83;1.92;;;24.00;69.90;;;;;;4995797;28;20732;-49
2023/08/14 00:51:25;;;;;;;3.33;2.83;;;24.00;69.90;;;;;;4997163;28;20066;-51
2023/08/14 00:53:52;;;;;;;4.07;2.63;;;24.00;69.90;;;;;;4997905;28;20088;-50
2023/08/14 00:56:19;;;;;;;2.25;2.03;;;24.00;69.70;;;;;;4992216;28;20038;-48
2023/08/14 00:58:45;;;;;;;2.70;1.98;;;24.00;69.70;;;;;;4996018;28;20030;-52
2023/08/14 01:01:10;;;;;;;2.55;1.98;;;24.00;69.80;;;;;;4993506;28;20057;-52
2023/08/14 01:03:36;;;;;;;3.15;2.33;;;24.00;69.80;;;;;;4993859;28;20042;-51
2023/08/14 01:06:02;;;;;;;3.58;2.20;;;24.00;69.80;;;;;;4994245;28;20038;-51
2023/08/14 01:08:28;;;;;;;1.85;1.75;;;24.00;69.80;;;;;;4991908;23;20089;-50
2023/08/14 01:11:16;;;;;;;3.20;1.92;;;24.00;69.80;;;;;;4974635;28;20053;-51
2023/08/14 01:14:05;;;;;;;4.22;2.50;;;24.00;69.60;;;;;;4974950;28;20145;-49
2023/08/14 01:16:43;;;;;;;2.10;1.90;;;24.00;69.70;;;;;;4972875;28;20556;-53
2023/08/14 01:19:20;;;;;;;2.13;1.85;;;24.00;69.80;;;;;;4974774;28;20030;-50
2023/08/14 01:22:04;;;;;;;2.22;2.03;;;24.00;69.70;;;;;;4973864;28;20085;-53
2023/08/14 01:24:59;;;;;;;3.60;2.17;;;24.00;69.70;;;;;;4972099;28;20031;-53
2023/08/14 01:27:26;;;;;;;2.75;1.98;;;24.00;69.70;;;;;;4971021;28;20042;-53
2023/08/14 01:29:58;;;;;;;3.35;1.98;;;24.00;69.60;;;;;;4971389;28;20038;-49
2023/08/14 01:32:24;;;;;;;2.45;2.25;;;24.00;69.50;;;;;;4970519;28;20511;-52
2023/08/14 01:34:51;;;;;;;3.78;2.10;;;24.00;69.40;;;;;;4975513;28;20093;-50
2023/08/14 01:37:42;;;;;;;2.88;2.10;;;23.90;69.50;;;;;;4975841;28;20034;-52
2023/08/14 01:40:50;;;;;;;3.13;1.92;;;24.00;69.60;;;;;;4975849;28;20203;-49
2023/08/14 01:43:24;;;;;;;2.25;2.05;;;24.00;69.70;;;;;;4964955;28;20031;-48
2023/08/14 01:45:52;;;;;;;2.67;2.10;;;24.00;69.50;;;;;;4971111;28;20037;-47
2023/08/14 01:48:20;;;;;;;2.55;2.35;;;24.00;69.30;;;;;;4974366;28;20055;-48
2023/08/14 01:50:47;;;;;;;2.47;1.90;;;24.00;69.30;;;;;;4971916;28;20133;-52
2023/08/14 01:53:13;;;;;;;3.00;1.80;;;23.90;69.20;;;;;;4970772;28;20114;-49
2023/08/14 01:55:38;;;;;;;5.35;3.15;;;24.00;69.30;;;;;;4970388;28;20122;-50
2023/08/14 01:58:04;;;;;;;3.85;2.35;;;24.00;69.30;;;;;;4972505;28;20427;-51
2023/08/14 02:00:32;;;;;;;2.53;2.03;;;24.00;69.20;;;;;;4975616;28;20034;-51
2023/08/14 02:02:57;;;;;;;2.25;2.05;;;24.00;69.10;;;;;;4966100;28;20031;-52
2023/08/14 02:05:23;;;;;;;2.67;1.48;;;23.90;69.10;;;;;;4977964;28;20243;-50
2023/08/14 02:07:48;;;;;;;2.28;2.08;;;23.90;69.20;;;;;;4975490;28;20042;-51
2023/08/14 02:10:14;;;;;;;2.40;1.65;;;23.90;69.30;;;;;;4977063;28;20691;-51
2023/08/14 02:12:39;;;;;;;2.33;1.90;;;23.90;69.20;;;;;;4974341;28;20034;-50
2023/08/14 02:15:05;;;;;;;3.72;1.73;;;23.90;69.10;;;;;;4964605;28;20562;-48
2023/08/14 02:17:31;;;;;;;2.42;2.00;;;23.90;69.20;;;;;;4969540;28;20045;-48
2023/08/14 02:19:56;;;;;;;2.53;1.70;;;23.90;69.30;;;;;;4974170;28;20060;-52
2023/08/14 02:22:22;;;;;;;4.13;1.90;;;23.90;69.30;;;;;;4974670;28;20128;-50
2023/08/14 02:24:48;;;;;;;3.20;1.75;;;23.90;69.10;;;;;;4975264;28;21545;-50
2023/08/14 02:27:13;;;;;;;3.42;1.63;;;23.90;69.10;;;;;;4975961;28;20046;-47
2023/08/14 02:29:39;;;;;;;3.47;2.30;;;23.90;69.10;;;;;;4979079;28;20034;-51
2023/08/14 02:32:04;;;;;;;2.40;1.60;;;23.90;69.00;;;;;;4976171;28;20042;-49
2023/08/14 02:34:41;;;;;;;2.05;1.85;;;23.90;69.20;;;;;;4978353;28;20396;-50
2023/08/14 02:37:07;;;;;;;1.83;1.70;;;23.90;69.00;;;;;;4975421;28;20046;-51
2023/08/14 02:39:32;;;;;;;2.28;1.85;;;23.90;69.20;;;;;;4976889;28;20124;-52
2023/08/14 02:41:58;;;;;;;1.77;1.67;;;23.90;69.10;;;;;;4974726;28;20564;-50
2023/08/14 02:44:23;;;;;;;2.70;1.90;;;23.90;68.80;;;;;;4975361;28;20509;-50
2023/08/14 02:46:49;;;;;;;2.38;1.75;;;23.90;68.90;;;;;;4961508;28;20034;-52
2023/08/14 02:49:14;;;;;;;2.75;1.67;;;23.90;68.90;;;;;;4978232;28;20042;-51
2023/08/14 02:51:40;;;;;;;2.10;1.67;;;23.80;69.00;;;;;;4974538;28;20034;-48
2023/08/14 02:54:05;;;;;;;1.70;1.60;;;23.80;68.80;;;;;;4976373;28;20117;-54
2023/08/14 02:56:31;;;;;;;2.60;1.85;;;23.90;69.00;;;;;;4973936;28;20443;-53
2023/08/14 02:58:56;;;;;;;1.40;1.30;;;23.90;69.00;;;;;;4975156;28;20574;-52
2023/08/14 03:01:22;;;;;;;3.33;2.13;;;23.80;69.00;;;;;;4959384;28;20042;-52
2023/08/14 03:03:47;;;;;;;3.25;1.70;;;23.80;68.90;;;;;;4976854;28;20040;-50
2023/08/14 03:06:13;;;;;;;2.45;1.25;;;23.90;68.80;;;;;;4975014;28;20031;-53
2023/08/14 03:08:38;;;;;;;1.50;1.40;;;23.80;68.60;;;;;;4977805;28;20066;-51
2023/08/14 03:11:04;;;;;;;2.35;2.15;;;23.80;68.70;;;;;;4976881;28;20109;-50
2023/08/14 03:13:29;;;;;;;2.55;1.95;;;23.80;68.90;;;;;;4973964;28;20027;-52
2023/08/14 03:15:55;;;;;;;1.92;1.50;;;23.80;68.90;;;;;;4969789;28;20484;-56
2023/08/14 03:18:21;;;;;;;2.13;2.00;;;23.80;68.90;;;;;;4973934;28;20178;-48
2023/08/14 03:20:46;;;;;;;2.75;1.73;;;23.80;68.90;;;;;;4974197;28;20026;-52
2023/08/14 03:23:12;;;;;;;2.33;1.83;;;23.80;68.80;;;;;;4957652;28;20114;-49
2023/08/14 03:25:37;;;;;;;2.15;1.95;;;23.80;68.80;;;;;;4961397;28;20037;-50
2023/08/14 03:28:03;;;;;;;3.35;1.83;;;23.80;69.00;;;;;;4974756;28;20520;-49
2023/08/14 03:30:29;;;;;;;3.08;1.70;;;23.80;68.90;;;;;;4959959;28;20198;-51
2023/08/14 03:32:54;;;;;;;2.38;1.92;;;23.80;68.80;;;;;;4971542;28;20070;-54
2023/08/14 03:35:20;;;;;;;2.72;1.80;;;23.80;68.60;;;;;;4974948;28;20460;-54
2023/08/14 03:37:45;;;;;;;1.83;1.60;;;23.80;68.60;;;;;;4972977;28;20654;-50
2023/08/14 03:40:11;;;;;;;1.92;1.40;;;23.80;68.60;;;;;;4975016;28;20415;-51
2023/08/14 03:42:36;;;;;;;3.45;1.45;;;23.80;68.60;;;;;;4976233;28;20096;-50
2023/08/14 03:45:02;;;;;;;2.22;1.60;;;23.80;68.60;;;;;;4975470;28;20045;-51
2023/08/14 03:47:28;;;;;;;2.20;1.58;;;23.80;68.50;;;;;;4971422;28;20537;-52
2023/08/14 03:49:53;;;;;;;4.05;1.60;;;23.70;68.40;;;;;;4976806;28;20621;-50
2023/08/14 03:52:19;;;;;;;1.77;1.67;;;23.70;68.40;;;;;;4976639;28;20046;-51
2023/08/14 03:54:45;;;;;;;3.58;1.60;;;23.70;68.70;;;;;;4973961;28;20031;-49
2023/08/14 03:57:10;;;;;;;3.25;1.58;;;23.70;68.50;;;;;;4958663;28;20407;-51
2023/08/14 03:59:36;;;;;;;2.13;1.63;;;23.70;68.60;;;;;;4977508;28;20396;-50
2023/08/14 04:02:01;;;;;;;2.38;1.63;;;23.70;68.70;;;;;;4974068;28;20038;-49
2023/08/14 04:04:27;;;;;;;1.67;1.48;;;23.70;68.60;;;;;;4976074;28;20034;-50
2023/08/14 04:06:52;;;;;;;2.00;1.75;;;23.70;68.60;;;;;;4975703;28;20030;-50
2023/08/14 04:09:18;;;;;;;2.40;1.80;;;23.70;68.50;;;;;;4972794;28;20039;-52
2023/08/14 04:11:43;;;;;;;2.03;1.80;;;23.70;68.50;;;;;;4971907;28;21602;-51
2023/08/14 04:14:10;;;;;;;2.03;1.83;;;23.70;68.40;;;;;;4973982;28;20185;-52
2023/08/14 04:16:43;;;;;;;1.88;1.77;;;23.70;68.60;;;;;;4974227;28;20047;-49
2023/08/14 04:19:12;;;;;;;2.13;1.92;;;23.70;68.50;;;;;;4970988;28;20507;-48
2023/08/14 04:21:38;;;;;;;1.88;1.77;;;23.70;68.50;;;;;;4974574;28;20029;-53
2023/08/14 04:24:04;;;;;;;3.67;2.20;;;23.70;68.40;;;;;;4973849;28;20038;-50
2023/08/14 04:26:29;;;;;;;2.15;1.80;;;23.70;68.30;;;;;;4977065;28;20046;-52
2023/08/14 04:28:55;;;;;;;3.25;2.22;;;23.60;68.80;;;;;;4973506;28;20031;-52
2023/08/14 04:31:20;;;;;;;3.83;1.98;;;23.60;68.60;;;;;;4974568;28;20038;-52
2023/08/14 04:33:46;;;;;;;3.13;2.33;;;23.60;68.60;;;;;;4975197;28;20027;-51
2023/08/14 04:36:11;;;;;;;2.72;2.40;;;23.50;68.20;;;;;;4971901;28;20509;-48
2023/08/14 04:38:37;;;;;;;4.45;2.63;;;23.40;69.00;;;;;;4975306;28;20532;-50
2023/08/14 04:41:02;;;;;;;3.50;2.63;;;23.40;69.20;;;;;;4968806;28;20037;-49
2023/08/14 04:43:31;;;;;;;3.53;2.95;;;23.40;69.30;;;;;;4971335;28;20049;-50
2023/08/14 04:45:57;;;;;;;4.80;3.95;;;23.30;69.30;;;;;;4975535;28;20122;-52
2023/08/14 04:48:23;;;;;;;4.28;2.80;;;23.30;69.40;;;;;;4976386;28;20034;-51
2023/08/14 04:50:48;;;;;;;5.00;3.22;;;23.30;69.50;;;;;;4974803;28;20057;-50
2023/08/14 04:53:14;;;;;;;3.58;2.80;;;23.30;69.50;;;;;;4974858;28;20034;-48
2023/08/14 04:55:39;;;;;;;5.25;3.40;;;23.40;69.50;;;;;;4975948;28;20037;-50
2023/08/14 04:58:05;;;;;;;3.97;3.20;;;23.40;69.60;;;;;;4974750;28;20114;-50
2023/08/14 05:00:30;;;;;;;4.13;3.30;;;23.40;69.60;;;;;;4972135;28;20023;-51
2023/08/14 05:02:56;;;;;;;3.53;3.22;;;23.40;69.60;;;;;;4967728;28;20042;-48
2023/08/14 05:05:21;;;;;;;4.40;3.15;;;23.40;69.70;;;;;;4973076;28;20109;-51
2023/08/14 05:07:47;;;;;;;3.72;3.42;;;23.40;69.60;;;;;;4971692;28;20108;-51
2023/08/14 05:10:12;;;;;;;5.68;3.40;;;23.40;69.60;;;;;;4970408;28;20034;-53
2023/08/14 05:12:38;;;;;;;3.40;2.88;;;23.50;69.60;;;;;;4973096;28;20023;-51
2023/08/14 05:15:04;;;;;;;5.30;3.10;;;23.40;69.70;;;;;;4977484;28;20046;-52
2023/08/14 05:17:30;;;;;;;4.90;3.08;;;23.40;69.80;;;;;;4973646;28;20046;-52
2023/08/14 05:19:55;;;;;;;5.43;3.50;;;23.50;69.80;;;;;;4970635;28;20396;-50
2023/08/14 05:22:21;;;;;;;6.65;4.20;;;23.60;69.70;;;;;;4972209;28;20034;-51
2023/08/14 05:24:47;;;;;;;3.88;3.30;;;23.60;69.90;;;;;;4974928;28;20031;-49
2023/08/14 05:27:13;;;;;;;7.13;3.35;;;23.60;69.60;;;;;;4975973;28;20053;-50
2023/08/14 05:29:38;;;;;;;4.20;3.17;;;23.60;69.60;;;;;;4972692;28;20195;-52
2023/08/14 05:32:04;;;;;;;3.83;3.15;;;23.60;69.50;;;;;;4974443;28;20141;-50
2023/08/14 05:34:30;;;;;;;3.85;2.95;;;23.70;69.40;;;;;;4969246;28;20042;-51
2023/08/14 05:36:55;;;;;;;3.53;3.22;;;23.70;69.40;;;;;;4975803;28;20046;-55
2023/08/14 05:39:21;;;;;;;3.88;3.00;;;23.70;69.40;;;;;;4980476;28;20049;-50
2023/08/14 05:41:47;;;;;;;8.10;3.22;;;23.70;69.50;;;;;;4974592;28;20237;-47
2023/08/14 05:44:12;;;;;;;6.32;3.33;;;23.70;69.60;;;;;;4975416;28;20062;-51
2023/08/14 05:46:38;;;;;;;3.67;3.25;;;23.70;69.60;;;;;;4962879;28;20042;-52
2023/08/14 05:49:04;;;;;;;4.80;3.10;;;23.70;69.60;;;;;;4979423;28;20081;-49
2023/08/14 05:51:31;;;;;;;5.00;3.67;;;23.70;70.10;;;;;;4978559;28;20037;-47
2023/08/14 05:53:56;;;;;;;4.65;3.40;;;23.70;69.70;;;;;;4976787;28;20027;-52
2023/08/14 05:56:22;;;;;;;8.80;3.35;;;23.70;69.90;;;;;;4977393;28;20053;-51
2023/08/14 05:58:47;;;;;;;5.47;3.80;;;23.80;70.20;;;;;;4974874;28;22122;-52
2023/08/14 06:01:14;;;;;;;7.15;3.65;;;23.80;70.30;;;;;;4974072;28;20034;-54
2023/08/14 06:03:40;;;;;;;7.60;3.60;;;23.80;69.90;;;;;;4974254;28;20038;-54
2023/08/14 06:06:05;;;;;;;3.42;3.13;;;23.80;69.90;;;;;;4976517;28;20026;-51
2023/08/14 06:08:31;;;;;;;6.25;3.17;;;23.80;69.90;;;;;;4971781;28;20039;-55
2023/08/14 06:10:57;;;;;;;6.65;3.55;;;23.80;69.80;;;;;;4976189;28;20030;-51
2023/08/14 06:13:22;;;;;;;4.28;3.20;;;23.80;70.10;;;;;;4979678;28;20493;-49
2023/08/14 06:15:48;;;;;;;5.80;3.47;;;23.90;70.10;;;;;;4975296;28;20035;-50
2023/08/14 06:18:13;;;;;;;5.82;3.53;;;23.80;70.10;;;;;;4978944;28;20447;-51
2023/08/14 06:20:39;;;;;;;5.50;3.00;;;23.90;70.10;;;;;;4977695;28;20433;-49
2023/08/14 06:23:04;;;;;;;6.30;3.13;;;23.80;70.10;;;;;;4977485;28;20053;-49
2023/08/14 06:25:32;;;;;;;6.20;3.90;;;23.80;71.60;;;;;;4975350;28;20031;-48
2023/08/14 06:27:58;;;;;;;4.13;3.15;;;23.80;71.20;;;;;;4976950;28;20034;-52
2023/08/14 06:30:24;;;;;;;3.47;2.95;;;23.80;71.10;;;;;;4976202;28;20043;-51
2023/08/14 06:32:50;;;;;;;5.13;3.38;;;23.80;71.30;;;;;;4970169;28;20580;-51
2023/08/14 06:35:15;;;;;;;3.55;3.25;;;23.80;71.60;;;;;;4979840;28;20045;-52
2023/08/14 06:37:41;;;;;;;7.60;3.63;;;23.80;71.60;;;;;;4973345;28;20039;-51
2023/08/14 06:40:08;;;;;;;5.07;3.63;;;23.80;71.60;;;;;;4976725;28;20038;-47
2023/08/14 06:42:33;;;;;;;4.18;3.78;;;23.80;71.50;;;;;;4974547;28;20048;-48
2023/08/14 06:44:59;;;;;;;6.05;3.55;;;23.80;71.50;;;;;;4976564;28;20034;-48
2023/08/14 06:47:24;;;;;;;4.07;3.42;;;23.80;71.30;;;;;;4980907;28;20121;-51
2023/08/14 06:49:50;;;;;;;6.85;3.92;;;23.80;70.90;;;;;;4958126;28;20694;-51
2023/08/14 06:52:16;;;;;;;5.25;3.40;;;23.90;71.30;;;;;;4976756;28;20392;-51
2023/08/14 06:54:42;;;;;;;4.68;3.22;;;23.80;72.00;;;;;;4973310;28;20031;-49
2023/08/14 06:57:08;;;;;;;5.15;3.85;;;23.80;71.20;;;;;;4973879;28;20081;-50
2023/08/14 06:59:34;;;;;;;4.45;3.33;;;23.80;71.40;;;;;;4974070;28;20045;-51
2023/08/14 07:02:01;;;;;;;6.97;3.78;;;23.80;71.40;;;;;;4974826;28;20077;-49
2023/08/14 07:04:26;;;;;;;3.60;3.28;;;23.80;71.60;;;;;;4957347;28;20046;-52
2023/08/14 07:06:52;;;;;;;5.05;3.63;;;23.80;71.20;;;;;;4973701;28;20030;-50
2023/08/14 07:09:17;;;;;;;4.15;3.38;;;23.80;71.40;;;;;;4974818;28;20197;-48
2023/08/14 07:11:43;;;;;;;3.10;2.78;;;23.80;71.30;;;;;;4972164;28;20057;-51
2023/08/14 07:14:09;;;;;;;5.68;3.13;;;23.80;71.20;;;;;;4978357;28;20121;-50
2023/08/14 07:16:36;;;;;;;4.05;3.65;;;23.80;71.30;;;;;;4978790;28;20038;-49
2023/08/14 07:19:01;;;;;;;3.78;3.33;;;23.80;71.40;;;;;;4976891;28;20035;-52
2023/08/14 07:21:27;;;;;;;5.50;3.70;;;23.80;71.10;;;;;;4974407;28;20555;-52
2023/08/14 07:23:53;;;;;;;5.68;3.40;;;23.90;71.10;;;;;;4957347;28;20030;-51
2023/08/14 07:26:18;;;;;;;3.38;3.08;;;23.90;71.30;;;;;;4972260;28;20512;-49
2023/08/14 07:28:44;;;;;;;4.05;3.33;;;23.80;71.10;;;;;;4953002;28;20038;-51
2023/08/14 07:31:10;;;;;;;5.28;3.47;;;23.90;71.00;;;;;;4969929;28;20122;-51
2023/08/14 07:33:36;;;;;;;4.78;3.78;;;23.90;71.00;;;;;;4969942;28;20037;-49
2023/08/14 07:36:03;;;;;;;5.13;3.47;;;23.90;71.00;;;;;;4974229;28;20122;-49
2023/08/14 07:38:29;;;;;;;3.67;3.20;;;23.90;70.70;;;;;;4968950;28;20027;-50
2023/08/14 07:40:55;;;;;;;5.60;3.40;;;23.90;70.90;;;;;;4975649;28;20041;-50
2023/08/14 07:43:22;;;;;;;3.60;2.88;;;23.90;70.90;;;;;;4974604;28;20053;-48
2023/08/14 07:45:47;;;;;;;5.63;3.55;;;23.90;70.90;;;;;;4977171;28;20031;-52
2023/08/14 07:48:13;;;;;;;5.78;3.10;;;23.90;70.60;;;;;;4975711;28;20049;-53
2023/08/14 07:50:38;;;;;;;3.85;2.70;;;23.90;70.50;;;;;;4974267;28;20074;-52
2023/08/14 07:53:04;;;;;;;6.00;3.63;;;23.90;70.40;;;;;;4973492;28;20236;-52
2023/08/14 07:55:30;;;;;;;3.97;3.05;;;23.90;70.40;;;;;;4971341;28;20173;-49
2023/08/14 07:57:55;;;;;;;5.07;3.17;;;23.90;70.40;;;;;;4975114;28;20085;-49
2023/08/14 08:00:21;;;;;;;4.13;3.70;;;24.00;70.60;;;;;;4968664;28;20094;-50
2023/08/14 08:02:47;;;;;;;3.88;3.10;;;24.00;70.40;;;;;;4971759;28;20043;-54
2023/08/14 08:05:13;;;;;;;5.07;3.17;;;24.00;70.30;;;;;;4968871;28;20039;-53
2023/08/14 08:07:38;;;;;;;4.97;3.70;;;23.90;70.30;;;;;;4979838;28;20049;-51
2023/08/14 08:10:05;;;;;;;3.53;3.22;;;24.00;70.30;;;;;;4973136;28;20034;-50
2023/08/14 08:12:30;;;;;;;6.18;3.70;;;23.90;70.10;;;;;;4977022;28;20583;-50
2023/08/14 08:14:56;;;;;;;4.13;3.05;;;24.00;70.30;;;;;;4977471;28;20121;-51
2023/08/14 08:17:21;;;;;;;8.57;3.38;;;24.00;70.40;;;;;;4974635;28;20069;-53
2023/08/14 08:19:47;;;;;;;3.60;3.30;;;24.00;70.40;;;;;;4972528;28;20523;-54
2023/08/14 08:22:13;;;;;;;7.32;3.55;;;24.00;70.30;;;;;;4971795;28;20033;-53
2023/08/14 08:24:39;;;;;;;5.80;3.58;;;24.00;70.50;;;;;;4970635;28;20038;-49
2023/08/14 08:27:04;;;;;;;12.23;3.53;;;24.10;70.60;;;;;;4960822;28;20082;-49
2023/08/14 08:29:30;;;;;;;4.10;3.42;;;24.10;70.50;;;;;;4968896;28;20068;-52
2023/08/14 08:31:55;;;;;;;4.57;3.35;;;24.00;70.60;;;;;;4973672;28;20113;-51
2023/08/14 08:34:21;;;;;;;5.72;3.92;;;24.00;70.50;;;;;;4973024;28;20031;-50
2023/08/14 08:36:46;;;;;;;4.25;3.08;;;24.00;70.70;;;;;;4975442;28;20039;-52
2023/08/14 08:39:12;;;;;;;5.75;3.85;;;24.00;70.70;;;;;;4969934;28;20061;-52
2023/08/14 08:41:44;;;;;;;6.03;3.67;;;24.00;71.10;;;;;;4973216;28;20373;-52
2023/08/14 08:44:15;;;;;;;6.85;3.80;;;24.00;70.90;;;;;;4974830;28;20026;-50
2023/08/14 08:46:51;;;;;;;5.50;3.53;;;24.10;71.10;;;;;;4973937;28;20027;-49
2023/08/14 08:49:17;;;;;;;4.25;3.72;;;24.20;71.10;;;;;;4974906;28;20058;-50
2023/08/14 08:51:44;;;;;;;4.95;3.97;;;24.20;71.20;;;;;;4977764;28;20032;-52
2023/08/14 08:54:11;;;;;;;3.95;3.55;;;24.20;71.10;;;;;;4982864;28;20077;-52
2023/08/14 08:56:37;;;;;;;4.53;4.13;;;24.20;71.30;;;;;;4971914;28;20035;-51
2023/08/14 08:59:04;;;;;;;4.47;4.00;;;24.20;71.50;;;;;;4981059;28;20037;-55
2023/08/14 09:01:29;;;;;;;4.57;4.10;;;24.20;71.30;;;;;;4980694;28;20042;-52
2023/08/14 09:03:55;;;;;;;5.72;3.78;;;24.20;71.30;;;;;;4982359;28;20411;-51
2023/08/14 09:06:21;;;;;;;5.35;3.55;;;24.20;71.60;;;;;;4981712;28;20046;-50
2023/08/14 09:08:46;;;;;;;6.18;4.05;;;24.20;71.50;;;;;;4962718;28;20585;-51
2023/08/14 09:11:12;;;;;;;4.35;3.92;;;24.20;71.40;;;;;;4980911;28;20030;-49
2023/08/14 09:13:38;;;;;;;4.82;3.30;;;24.20;71.20;;;;;;4963522;28;20030;-49
2023/08/14 09:16:03;;;;;;;5.53;3.97;;;24.20;71.20;;;;;;4982521;28;20081;-50
2023/08/14 09:18:30;;;;;;;4.78;3.70;;;24.20;71.30;;;;;;4979060;28;20068;-50
2023/08/14 09:20:57;;;;;;;5.53;4.47;;;24.20;71.30;;;;;;4980011;28;20065;-52
2023/08/14 09:23:22;;;;;;;5.60;3.67;;;24.20;71.20;;;;;;4981214;28;20049;-50
2023/08/14 09:25:50;;;;;;;6.15;4.38;;;24.20;71.30;;;;;;4978085;28;20485;-50
2023/08/14 09:28:17;;;;;;;7.65;4.40;;;24.20;71.50;;;;;;4982045;28;20062;-50
2023/08/14 09:30:43;;;;;;;5.97;4.22;;;24.30;71.40;;;;;;4979951;28;20184;-55
2023/08/14 09:33:10;;;;;;;4.97;4.47;;;24.30;71.70;;;;;;4981214;28;20061;-48
2023/08/14 09:35:37;;;;;;;5.60;4.65;;;24.30;71.90;;;;;;4980810;28;20054;-52
2023/08/14 09:38:02;;;;;;;5.05;4.30;;;24.30;71.60;;;;;;4981026;28;20531;-49
2023/08/14 09:40:28;;;;;;;4.95;4.40;;;24.30;71.70;;;;;;4981530;28;20046;-48
2023/08/14 09:42:56;;;;;;;8.35;4.55;;;24.30;72.00;;;;;;4972584;28;20704;-51
2023/08/14 09:45:23;;;;;;;6.75;4.50;;;24.30;72.00;;;;;;4977505;28;20038;-49
2023/08/14 09:47:50;;;;;;;5.38;3.95;;;24.30;71.90;;;;;;4971186;28;20041;-52
2023/08/14 09:50:16;;;;;;;9.63;4.35;;;24.30;72.30;;;;;;4968885;28;20182;-49
2023/08/14 09:52:45;;;;;;;4.90;4.18;;;24.30;72.30;;;;;;4972000;28;20027;-51
2023/08/14 09:55:13;;;;;;;5.45;4.60;;;24.40;71.90;;;;;;4975406;28;20031;-49
2023/08/14 09:57:39;;;;;;;8.73;4.80;;;24.40;72.10;;;;;;4972921;28;20465;-51
2023/08/14 10:00:06;;;;;;;6.45;4.35;;;24.40;72.00;;;;;;4972397;28;20038;-52
2023/08/14 10:02:33;;;;;;;5.95;3.90;;;24.40;72.10;;;;;;4973018;28;20038;-49
2023/08/14 10:05:01;;;;;;;6.38;4.47;;;24.40;72.50;;;;;;4969890;28;20035;-55
2023/08/14 10:07:27;;;;;;;4.05;3.65;;;24.40;72.20;;;;;;4972281;28;20035;-51
2023/08/14 10:09:59;;;;;;;5.75;4.75;;;24.40;72.20;;;;;;4970606;28;20089;-52
2023/08/14 10:12:29;;;;;;;4.85;4.32;;;24.40;72.40;;;;;;4965846;28;20035;-52
2023/08/14 10:15:11;;;;;;;6.25;4.28;;;24.40;72.50;;;;;;4973428;28;20057;-53
2023/08/14 10:18:02;;;;;;;4.63;3.97;;;24.40;72.50;;;;;;4967505;28;20462;-52
2023/08/14 10:20:33;;;;;;;6.50;4.88;;;24.40;72.50;;;;;;4970040;28;20109;-49
2023/08/14 10:22:59;;;;;;;5.95;4.40;;;24.40;72.30;;;;;;4975186;28;20034;-50
2023/08/14 10:25:25;;;;;;;6.70;4.57;;;24.50;73.00;;;;;;4975948;28;20121;-50
2023/08/14 10:27:52;;;;;;;7.28;4.50;;;24.50;72.70;;;;;;4977692;28;20549;-51
2023/08/14 10:30:22;;;;;;;5.97;4.95;;;24.50;72.80;;;;;;4974688;28;20536;-53
2023/08/14 10:32:49;;;;;;;6.90;4.40;;;24.50;72.70;;;;;;4974261;28;20041;-52
2023/08/14 10:35:14;;;;;;;6.18;4.43;;;24.50;73.10;;;;;;4972325;28;20968;-52
2023/08/14 10:37:48;;;;;;;10.40;5.28;;;24.50;72.70;;;;;;4976883;28;20054;-49
2023/08/14 10:40:17;;;;;;;5.10;4.65;;;24.50;72.90;;;;;;4976263;28;20023;-50
2023/08/14 10:42:44;;;;;;;5.60;4.68;;;24.50;73.50;;;;;;4976180;28;20037;-51
2023/08/14 10:45:10;;;;;;;5.60;4.38;;;24.60;73.00;;;;;;4970671;28;20515;-48
2023/08/14 10:47:38;;;;;;;7.28;5.07;;;24.50;72.70;;;;;;4975099;28;20027;-52
2023/08/14 10:50:23;;;;;;;4.63;4.18;;;24.60;72.50;;;;;;4980662;28;20037;-52
2023/08/14 10:52:52;;;;;;;5.47;4.38;;;24.60;72.50;;;;;;4962896;28;20085;-49
2023/08/14 10:55:36;;;;;;;6.45;4.22;;;24.60;72.20;;;;;;4978009;28;20796;-53
2023/08/14 10:58:35;;;;;;;4.63;4.22;;;24.60;72.10;;;;;;4970690;28;20041;-49
2023/08/14 11:01:11;;;;;;;8.23;4.53;;;24.60;72.10;;;;;;4973461;28;20113;-59
2023/08/14 11:04:01;;;;;;;8.02;4.30;;;24.60;72.40;;;;;;4955012;28;20041;-52
2023/08/14 11:06:29;;;;;;;6.05;5.45;;;24.60;72.10;;;;;;4969986;28;20105;-52
2023/08/14 11:09:01;;;;;;;7.25;4.80;;;24.60;72.60;;;;;;4969595;28;20062;-51
2023/08/14 11:11:27;;;;;;;8.27;5.15;;;24.60;72.90;;;;;;4969448;28;20106;-49
2023/08/14 11:13:53;;;;;;;5.40;4.85;;;24.70;73.20;;;;;;4978445;28;20193;-51
2023/08/14 11:16:19;;;;;;;7.38;4.78;;;24.70;73.00;;;;;;4974868;28;20026;-52
2023/08/14 11:18:45;;;;;;;6.55;5.25;;;24.70;73.30;;;;;;4977743;28;20518;-49
2023/08/14 11:21:12;;;;;;;7.28;5.95;;;24.70;73.10;;;;;;4977406;28;20027;-49
2023/08/14 11:23:37;;;;;;;5.63;4.70;;;24.70;72.90;;;;;;4977176;28;20025;-49
2023/08/14 11:26:03;;;;;;;5.60;4.68;;;24.70;72.80;;;;;;4976592;28;20026;-50
2023/08/14 11:28:31;;;;;;;4.82;4.43;;;24.70;72.70;;;;;;4976404;28;20022;-51
2023/08/14 11:30:57;;;;;;;7.07;5.00;;;24.70;72.70;;;;;;4974578;28;20038;-49
2023/08/14 11:33:22;;;;;;;8.43;5.43;;;24.70;72.60;;;;;;4973126;28;20034;-48
2023/08/14 11:35:48;;;;;;;5.22;4.72;;;24.70;72.60;;;;;;4967002;28;20039;-50
2023/08/14 11:38:14;;;;;;;6.10;4.05;;;24.70;72.50;;;;;;4974061;28;20030;-50
2023/08/14 11:40:41;;;;;;;7.00;5.00;;;24.80;72.30;;;;;;4976019;28;20503;-52
2023/08/14 11:43:06;;;;;;;5.50;4.78;;;24.80;72.20;;;;;;4976356;28;20030;-53
2023/08/14 11:45:32;;;;;;;6.93;4.10;;;24.80;72.30;;;;;;4971574;28;20035;-49
2023/08/14 11:47:57;;;;;;;6.85;5.25;;;24.80;72.10;;;;;;4978760;28;20448;-50
2023/08/14 11:50:23;;;;;;;6.45;4.75;;;24.90;71.90;;;;;;4964933;28;20759;-50
2023/08/14 11:52:50;;;;;;;6.53;4.47;;;24.90;71.90;;;;;;4974340;28;20046;-52
2023/08/14 11:55:16;;;;;;;7.35;4.95;;;24.80;71.80;;;;;;4977000;28;20038;-51
2023/08/14 11:57:43;;;;;;;5.47;4.82;;;24.90;72.00;;;;;;4975877;28;20587;-48
2023/08/14 12:00:10;;;;;;;7.75;4.78;;;24.90;72.00;;;;;;4971275;28;20938;-50
2023/08/14 12:02:40;;;;;;;5.25;4.72;;;24.90;72.60;;;;;;4973151;28;20065;-52
2023/08/14 12:05:06;;;;;;;7.85;4.70;;;24.90;72.40;;;;;;4971644;28;20500;-50
2023/08/14 12:07:32;;;;;;;8.00;5.22;;;24.90;72.40;;;;;;4970845;28;20488;-49
2023/08/14 12:09:58;;;;;;;5.90;4.85;;;24.90;72.70;;;;;;4981218;28;20031;-50
2023/08/14 12:12:25;;;;;;;8.07;5.40;;;24.90;72.40;;;;;;4981155;28;20252;-52
2023/08/14 12:14:52;;;;;;;5.55;5.05;;;24.90;72.50;;;;;;4977301;28;20228;-51
2023/08/14 12:17:18;;;;;;;6.55;5.32;;;24.90;72.30;;;;;;4980959;28;20420;-47
2023/08/14 12:19:52;;;;;;;5.53;5.03;;;24.90;72.50;;;;;;4977025;28;20026;-52
2023/08/14 12:22:22;;;;;;;5.95;4.85;;;24.90;72.70;;;;;;4977048;28;20041;-53
2023/08/14 12:24:48;;;;;;;5.82;4.93;;;24.90;72.90;;;;;;4980158;28;20081;-51
2023/08/14 12:27:24;;;;;;;5.70;5.18;;;24.90;72.80;;;;;;4983174;28;20023;-50
2023/08/14 12:29:51;;;;;;;5.10;4.60;;;24.90;72.70;;;;;;4975124;28;20035;-50
2023/08/14 12:32:18;;;;;;;5.68;4.97;;;24.90;73.20;;;;;;4980156;28;20492;-50
2023/08/14 12:34:43;;;;;;;6.50;4.70;;;24.90;72.90;;;;;;4977775;28;20030;-50
2023/08/14 12:37:14;;;;;;;6.82;4.88;;;24.90;72.70;;;;;;4982630;28;20038;-52
2023/08/14 12:39:40;;;;;;;5.50;5.00;;;24.90;72.70;;;;;;4980744;28;20427;-49
2023/08/14 12:42:06;;;;;;;5.00;4.55;;;24.90;72.70;;;;;;4979330;28;20050;-51
2023/08/14 12:44:32;;;;;;;6.32;4.80;;;24.90;72.60;;;;;;4976011;28;20034;-51
2023/08/14 12:46:58;;;;;;;5.20;4.63;;;25.00;72.70;;;;;;4972544;28;20037;-52